Grover Hill, Ohio
Current Conditions -  °F | °C
As of 7:53 AM on Friday 28 Nov 2014 (Local Time) from KDFI Reporting Station
Overcast Overcast  
Wind Chill: 22°   Ceiling: 11000
Heat Index: 22°   Visibility: 10mi
Dew Point: 16°   Wind: 3mph
Humidity: 78%   Direction: 240°WSW
Pressure: 30.37"   Gusts: NA
Location:  41.02°N, 84.48°W
Report Text: KDFI 281253Z AUTO 24003KT 10SM FEW039 OVC110 M06/M09 A3037 RMK AO2 SLP295 T10561089
Loading
Personal Weather Stations






























Interactive Weather Map New forecast layout! Learn more

10-Day Weather Forecast

Advertisements
Track Severe Weather on mobile